createdAt,value
2022-12-05T00:01:44.267Z,23.00
2022-12-05T00:04:13.638Z,22.53
2022-12-05T00:06:43.069Z,20.40
2022-12-05T00:09:14.632Z,21.70
2022-12-05T00:11:44.769Z,22.03
2022-12-05T00:14:12.741Z,23.70
2022-12-05T00:16:42.323Z,21.63
2022-12-05T00:19:12.691Z,20.90
2022-12-05T00:21:39.959Z,22.77
2022-12-05T00:24:10.501Z,22.03
2022-12-05T00:26:37.953Z,20.80
2022-12-05T00:29:05.087Z,21.17
2022-12-05T00:31:32.825Z,22.93
2022-12-05T00:34:01.788Z,23.03
2022-12-05T00:36:31.491Z,23.53
2022-12-05T00:39:06.099Z,22.43
2022-12-05T00:41:34.530Z,23.83
2022-12-05T00:44:02.768Z,23.20
2022-12-05T00:46:31.831Z,23.37
2022-12-05T00:49:00.465Z,23.13
2022-12-05T00:51:33.053Z,23.00
2022-12-05T00:54:02.773Z,22.87
2022-12-05T00:56:31.816Z,22.43
2022-12-05T00:58:59.718Z,21.20
2022-12-05T01:01:30.489Z,20.83
2022-12-05T01:03:59.555Z,22.60
2022-12-05T01:06:27.906Z,22.30
2022-12-05T01:08:56.763Z,23.30
2022-12-05T01:11:25.186Z,21.50
2022-12-05T01:13:53.094Z,23.00
2022-12-05T01:16:33.622Z,22.13
2022-12-05T01:19:03.263Z,22.43
2022-12-05T01:21:30.930Z,22.73
2022-12-05T01:23:57.987Z,21.67
2022-12-05T01:26:25.256Z,22.53
2022-12-05T01:28:52.777Z,23.30
2022-12-05T01:31:27.230Z,23.23
2022-12-05T01:33:56.612Z,24.00
2022-12-05T01:36:24.750Z,23.03
2022-12-05T01:38:52.442Z,24.27
2022-12-05T01:41:23.281Z,22.83
2022-12-05T01:44:16.710Z,23.20
2022-12-05T01:46:49.184Z,21.60
2022-12-05T01:49:25.890Z,22.30
2022-12-05T01:51:58.146Z,24.07
2022-12-05T01:54:27.827Z,24.40
2022-12-05T01:57:01.682Z,23.67
2022-12-05T01:59:33.092Z,24.00
2022-12-05T02:02:01.786Z,22.50
2022-12-05T02:04:29.378Z,24.37
2022-12-05T02:06:56.607Z,22.13
2022-12-05T02:09:23.982Z,22.87
2022-12-05T02:11:57.671Z,24.40
2022-12-05T02:15:04.744Z,22.97
2022-12-05T02:18:22.209Z,24.00
2022-12-05T02:21:27.626Z,23.70
2022-12-05T02:24:33.673Z,24.90
2022-12-05T02:27:59.119Z,25.37
2022-12-05T02:30:31.140Z,24.30
2022-12-05T02:33:11.006Z,23.23
2022-12-05T02:36:02.821Z,25.90
2022-12-05T02:38:41.077Z,23.83
2022-12-05T03:02:10.017Z,25.20
2022-12-05T03:04:37.674Z,23.17
2022-12-05T03:07:09.699Z,25.97
2022-12-05T03:10:00.853Z,22.10
2022-12-05T03:12:38.588Z,25.50
2022-12-05T03:15:12.724Z,23.03
2022-12-05T03:17:52.527Z,25.63
2022-12-05T03:20:33.455Z,24.30
2022-12-05T03:23:27.447Z,25.00
2022-12-05T03:26:12.292Z,24.03
2022-12-05T03:29:12.291Z,23.67
2022-12-05T03:31:52.489Z,24.23
2022-12-05T03:34:35.603Z,24.77
2022-12-05T03:37:11.150Z,24.43
2022-12-05T03:39:43.946Z,24.53
2022-12-05T03:42:14.077Z,23.10
2022-12-05T03:44:57.572Z,25.30
2022-12-05T03:47:49.126Z,23.60
2022-12-05T03:50:38.702Z,23.77
2022-12-05T03:53:25.509Z,23.43
2022-12-05T03:56:06.133Z,23.83
2022-12-05T03:58:45.515Z,23.87
2022-12-05T04:01:15.337Z,23.37
2022-12-05T04:03:52.032Z,23.60
2022-12-05T04:06:35.902Z,25.50
2022-12-05T04:09:17.728Z,23.90
2022-12-05T04:11:53.566Z,24.87
2022-12-05T04:14:29.028Z,24.97
2022-12-05T04:17:11.975Z,23.17
2022-12-05T04:20:22.930Z,23.50
2022-12-05T04:22:50.579Z,23.77
2022-12-05T04:25:34.870Z,22.80
2022-12-05T04:28:28.123Z,22.40
2022-12-05T04:31:08.797Z,22.93
2022-12-05T04:33:54.228Z,22.40
2022-12-05T04:36:36.129Z,22.33
2022-12-05T04:39:17.543Z,23.67
2022-12-05T04:41:55.974Z,24.10
2022-12-05T04:44:29.789Z,22.93
2022-12-05T04:47:00.422Z,22.67
2022-12-05T04:49:29.871Z,22.50
2022-12-05T04:52:01.802Z,23.30
2022-12-05T04:54:44.365Z,22.50
2022-12-05T04:57:29.939Z,22.33
2022-12-05T04:59:57.697Z,24.50
2022-12-05T05:02:35.755Z,22.50
2022-12-05T05:05:06.343Z,22.93
2022-12-05T05:08:17.358Z,23.47
2022-12-05T05:11:11.139Z,22.50
2022-12-05T05:13:38.209Z,22.33
2022-12-05T05:16:06.736Z,23.17
2022-12-05T05:18:34.361Z,23.70
2022-12-05T05:21:01.911Z,23.60
2022-12-05T05:23:28.859Z,22.77
2022-12-05T05:25:56.785Z,22.83
2022-12-05T05:28:26.291Z,24.40
2022-12-05T05:30:54.683Z,25.33
2022-12-05T05:33:24.708Z,23.90
2022-12-05T05:35:53.417Z,23.97
2022-12-05T05:38:22.494Z,22.83
2022-12-05T05:40:49.608Z,24.70
2022-12-05T05:43:16.998Z,23.87
2022-12-05T05:45:44.749Z,24.40
2022-12-05T05:48:11.570Z,25.60
2022-12-05T05:50:38.544Z,22.40
2022-12-05T05:53:05.383Z,23.87
2022-12-05T05:55:32.329Z,25.20
2022-12-05T05:57:59.299Z,24.70
2022-12-05T06:00:26.726Z,22.47
2022-12-05T06:02:53.824Z,21.53
2022-12-05T06:05:22.278Z,23.57
2022-12-05T06:07:49.394Z,22.27
2022-12-05T06:10:16.557Z,23.80
2022-12-05T06:12:43.728Z,23.20
2022-12-05T06:15:10.916Z,24.30
2022-12-05T06:17:37.934Z,23.30
2022-12-05T06:20:06.436Z,25.17
2022-12-05T06:22:33.574Z,24.77
2022-12-05T06:25:00.628Z,25.67
2022-12-05T06:27:30.494Z,24.57
2022-12-05T06:29:58.151Z,25.70
2022-12-05T06:32:28.059Z,26.73
2022-12-05T06:34:55.436Z,25.97
2022-12-05T06:37:22.647Z,27.90
2022-12-05T06:39:51.949Z,26.50
2022-12-05T06:42:22.472Z,28.23
2022-12-05T06:44:49.691Z,27.07
2022-12-05T06:47:19.019Z,26.80
2022-12-05T06:49:47.602Z,23.20
2022-12-05T06:52:17.314Z,24.03
2022-12-05T06:54:44.537Z,24.30
2022-12-05T06:57:12.835Z,24.40
2022-12-05T06:59:41.927Z,24.23
2022-12-05T07:02:13.534Z,28.70
2022-12-05T07:04:42.455Z,26.33
2022-12-05T07:07:11.575Z,25.40
2022-12-05T07:09:51.365Z,26.77
2022-12-05T07:12:20.089Z,27.33
2022-12-05T07:14:50.344Z,26.17
2022-12-05T07:17:19.039Z,27.00
2022-12-05T07:19:50.163Z,27.80
2022-12-05T07:22:24.140Z,28.40
2022-12-05T07:24:53.913Z,28.63
2022-12-05T07:27:28.069Z,28.27
2022-12-05T07:29:57.254Z,26.57
2022-12-05T07:32:25.143Z,25.70
2022-12-05T07:34:55.477Z,32.33
2022-12-05T07:37:26.305Z,23.80
2022-12-05T07:39:53.633Z,26.73
2022-12-05T07:42:20.647Z,27.10
2022-12-05T07:44:47.549Z,25.87
2022-12-05T07:47:14.558Z,30.27
2022-12-05T07:49:41.593Z,26.43
2022-12-05T07:52:09.709Z,26.37
2022-12-05T07:54:37.800Z,26.80
2022-12-05T07:57:04.925Z,26.93
2022-12-05T07:59:32.144Z,27.40
2022-12-05T08:01:59.150Z,26.73
2022-12-05T08:04:26.149Z,27.07
2022-12-05T08:06:53.093Z,26.00
2022-12-05T08:09:19.970Z,25.73
2022-12-05T08:11:52.608Z,26.13
2022-12-05T08:14:20.746Z,27.63
2022-12-05T08:16:48.012Z,26.80
2022-12-05T08:19:17.232Z,25.47
2022-12-05T08:21:44.349Z,25.53
2022-12-05T08:24:11.489Z,29.77
2022-12-05T08:26:39.591Z,30.63
2022-12-05T08:29:09.599Z,27.83
2022-12-05T08:31:50.073Z,26.00
2022-12-05T08:34:20.381Z,26.70
2022-12-05T08:36:47.892Z,27.10
2022-12-05T08:39:16.609Z,26.63
2022-12-05T08:41:44.117Z,28.43
2022-12-05T08:44:16.197Z,29.83
2022-12-05T08:46:45.007Z,29.57
2022-12-05T08:49:12.805Z,29.97
2022-12-05T08:51:41.645Z,31.53
2022-12-05T08:54:08.574Z,27.37
2022-12-05T08:56:35.555Z,27.53
2022-12-05T08:59:05.747Z,30.10
2022-12-05T09:01:34.183Z,29.83
2022-12-05T09:04:02.596Z,29.47
2022-12-05T09:06:29.961Z,31.90
2022-12-05T09:08:59.133Z,26.33
2022-12-05T09:11:29.180Z,26.33
2022-12-05T09:13:57.975Z,28.43
2022-12-05T09:16:37.444Z,25.67
2022-12-05T09:19:27.789Z,25.33
2022-12-05T09:21:55.706Z,23.50
2022-12-05T09:24:22.850Z,22.77
2022-12-05T09:26:51.066Z,20.10
2022-12-05T09:29:18.510Z,24.00
2022-12-05T09:31:48.038Z,22.30
2022-12-05T09:34:18.733Z,21.63
2022-12-05T09:36:46.795Z,23.00
2022-12-05T09:39:13.673Z,23.13
2022-12-05T09:42:05.494Z,22.93
2022-12-05T09:45:29.299Z,22.00
2022-12-05T09:48:05.072Z,21.10
2022-12-05T09:50:50.354Z,21.60
2022-12-05T09:53:34.115Z,27.17
2022-12-05T09:56:15.804Z,27.60
2022-12-05T09:58:48.536Z,29.50
2022-12-05T10:01:44.189Z,31.83
2022-12-05T10:05:02.557Z,27.33
2022-12-05T10:08:19.626Z,26.30
2022-12-05T10:11:00.917Z,24.77
2022-12-05T10:14:07.168Z,25.77
2022-12-05T10:16:45.789Z,24.90
2022-12-05T10:19:27.222Z,26.93
2022-12-05T10:22:02.128Z,27.80
2022-12-05T10:24:38.867Z,27.47
2022-12-05T10:27:08.828Z,27.87
2022-12-05T10:29:50.896Z,35.97
2022-12-05T10:32:24.273Z,36.10
2022-12-05T10:35:15.595Z,41.43
2022-12-05T10:37:58.043Z,34.77
2022-12-05T10:40:51.422Z,33.63
2022-12-05T10:43:28.996Z,29.87
2022-12-05T10:45:57.041Z,28.00
2022-12-05T10:48:24.891Z,25.57
2022-12-05T10:50:54.904Z,26.07
2022-12-05T10:53:32.730Z,24.70
2022-12-05T10:56:29.246Z,24.20
2022-12-05T10:58:56.695Z,23.70
2022-12-05T11:01:26.292Z,26.27
2022-12-05T11:04:13.466Z,23.97
2022-12-05T11:07:02.603Z,24.40
2022-12-05T11:09:39.395Z,22.63
2022-12-05T11:12:32.535Z,23.83
2022-12-05T11:15:25.688Z,24.93
2022-12-05T11:17:57.722Z,24.57
2022-12-05T11:20:36.734Z,22.40
2022-12-05T11:23:22.203Z,23.20
2022-12-05T11:25:49.298Z,24.27
2022-12-05T11:28:36.772Z,23.33
2022-12-05T11:31:25.526Z,24.70
2022-12-05T11:34:20.653Z,24.13
2022-12-05T11:36:53.742Z,23.10
2022-12-05T11:39:20.774Z,26.20
2022-12-05T11:42:39.996Z,24.40
2022-12-05T11:45:27.609Z,24.80
2022-12-05T11:48:30.733Z,24.17
2022-12-05T11:51:36.563Z,25.80
2022-12-05T11:58:25.978Z,25.70
2022-12-05T12:01:26.516Z,26.47
2022-12-05T12:10:35.451Z,28.07
2022-12-05T12:22:32.360Z,27.43
2022-12-05T12:31:57.923Z,24.40
2022-12-05T12:34:43.636Z,25.90
2022-12-05T12:37:40.305Z,24.20
2022-12-05T12:40:30.754Z,23.40
2022-12-05T12:46:53.481Z,22.97
2022-12-05T12:49:50.088Z,22.83
2022-12-05T12:52:24.449Z,23.13
2022-12-05T12:55:23.493Z,19.73
2022-12-05T12:58:36.932Z,20.90
2022-12-05T13:01:40.252Z,19.30
2022-12-05T13:04:15.142Z,17.70
2022-12-05T13:06:45.816Z,21.20
2022-12-05T13:09:16.832Z,24.27
2022-12-05T13:11:45.893Z,22.47
2022-12-05T13:14:16.522Z,23.67
2022-12-05T13:16:51.116Z,23.30
2022-12-05T13:19:30.949Z,25.97
2022-12-05T13:21:59.324Z,27.03
2022-12-05T13:24:28.469Z,26.40
2022-12-05T13:27:00.517Z,26.00
2022-12-05T13:29:38.695Z,27.10
2022-12-05T13:32:10.175Z,28.87
2022-12-05T13:34:46.516Z,27.73
2022-12-05T13:37:41.792Z,26.40
2022-12-05T13:40:45.805Z,25.47
2022-12-05T13:43:20.056Z,24.20
2022-12-05T13:46:07.935Z,22.63
2022-12-05T13:48:39.026Z,22.33
2022-12-05T13:51:31.345Z,21.73
2022-12-05T13:54:20.440Z,21.67
2022-12-05T13:56:58.716Z,23.60
2022-12-05T14:00:19.653Z,21.93
2022-12-05T14:02:48.843Z,21.13
2022-12-05T14:05:37.682Z,19.27
2022-12-05T14:08:51.437Z,19.87
2022-12-05T14:11:18.520Z,21.10
2022-12-05T14:13:45.928Z,21.63
2022-12-05T14:16:45.278Z,25.67
2022-12-05T14:19:37.809Z,21.07
2022-12-05T14:22:27.330Z,23.33
2022-12-05T14:25:57.737Z,23.70
2022-12-05T14:28:48.897Z,23.53
2022-12-05T14:32:03.955Z,25.77
2022-12-05T14:34:42.650Z,28.60
2022-12-05T14:37:56.402Z,27.10
2022-12-05T14:40:41.018Z,26.53
2022-12-05T14:43:52.645Z,27.93
2022-12-05T14:46:44.625Z,27.30
2022-12-05T14:49:51.111Z,27.70
2022-12-05T14:52:22.251Z,28.80
2022-12-05T14:54:54.202Z,24.60
2022-12-05T14:57:21.804Z,24.87
2022-12-05T14:59:57.541Z,23.30
2022-12-05T15:02:32.864Z,20.30
2022-12-05T15:05:29.983Z,21.10
2022-12-05T15:07:59.229Z,21.13
2022-12-05T15:10:34.233Z,19.40
2022-12-05T15:13:21.667Z,18.33
2022-12-05T15:16:16.975Z,17.83
2022-12-05T15:18:49.203Z,22.67
2022-12-05T15:21:47.194Z,18.13
2022-12-05T15:24:19.641Z,17.83
2022-12-05T15:26:51.577Z,17.63
2022-12-05T15:29:23.396Z,19.33
2022-12-05T15:31:57.613Z,18.43
2022-12-05T15:34:40.638Z,20.50
2022-12-05T15:37:41.625Z,23.00
2022-12-05T15:40:18.121Z,25.10
2022-12-05T15:42:50.144Z,24.23
2022-12-05T15:45:29.012Z,24.60
2022-12-05T15:48:07.974Z,24.47
2022-12-05T15:50:51.267Z,23.70
2022-12-05T15:53:42.093Z,23.50
2022-12-05T15:56:33.159Z,22.50
2022-12-05T15:59:40.671Z,21.30
2022-12-05T16:02:41.416Z,22.80
2022-12-05T16:05:21.392Z,23.53
2022-12-05T16:07:50.358Z,22.27
2022-12-05T16:10:23.467Z,22.60
2022-12-05T16:12:53.800Z,23.00
2022-12-05T16:15:26.279Z,23.83
2022-12-05T16:18:02.976Z,23.10
2022-12-05T16:20:39.102Z,24.80
2022-12-05T16:23:26.781Z,23.13
2022-12-05T16:25:54.297Z,24.13
2022-12-05T16:28:22.591Z,23.43
2022-12-05T16:31:01.952Z,20.50
2022-12-05T16:33:31.828Z,19.70
2022-12-05T16:36:22.869Z,20.00
2022-12-05T16:38:49.981Z,18.97
2022-12-05T16:41:17.398Z,19.40
2022-12-05T16:43:46.276Z,19.50
2022-12-05T16:46:39.467Z,20.13
2022-12-05T16:49:20.235Z,20.50
2022-12-05T16:51:59.189Z,21.83
2022-12-05T16:54:27.592Z,21.23
2022-12-05T16:56:55.258Z,23.93
2022-12-05T16:59:35.740Z,23.10
2022-12-05T17:02:04.885Z,21.60
2022-12-05T17:04:32.078Z,21.70
2022-12-05T17:06:59.549Z,21.47
2022-12-05T17:09:26.546Z,20.87
2022-12-05T17:12:04.369Z,20.73
2022-12-05T17:14:31.576Z,23.37
2022-12-05T17:17:01.281Z,40.10
2022-12-05T17:19:33.341Z,50.50
2022-12-05T17:22:00.620Z,46.67
2022-12-05T17:24:28.696Z,36.07
2022-12-05T17:26:55.935Z,31.70
2022-12-05T17:29:22.910Z,28.13
2022-12-05T17:31:50.433Z,24.23
2022-12-05T17:34:18.365Z,26.47
2022-12-05T17:36:45.680Z,25.33
2022-12-05T17:39:12.976Z,23.73
2022-12-05T17:41:42.322Z,23.63
2022-12-05T17:44:13.436Z,23.77
2022-12-05T17:46:43.115Z,22.17
2022-12-05T17:49:14.398Z,22.80
2022-12-05T17:52:05.607Z,25.13
2022-12-05T17:54:29.154Z,24.40
2022-12-05T17:56:57.786Z,23.40
2022-12-05T17:59:24.736Z,24.17
2022-12-05T18:01:51.765Z,21.80
2022-12-05T18:04:23.047Z,20.50
2022-12-05T18:06:50.827Z,22.20
2022-12-05T18:09:17.947Z,22.60
2022-12-05T18:11:47.225Z,20.73
2022-12-05T18:14:14.375Z,22.33
2022-12-05T18:16:41.511Z,22.97
2022-12-05T18:19:09.320Z,21.40
2022-12-05T18:21:36.351Z,22.80
2022-12-05T18:24:03.914Z,21.70
2022-12-05T18:26:31.156Z,21.47
2022-12-05T18:28:59.486Z,21.33
2022-12-05T18:31:31.652Z,22.47
2022-12-05T18:36:45.789Z,22.43
2022-12-05T18:39:16.170Z,22.63
2022-12-05T18:41:43.241Z,21.83
2022-12-05T18:44:10.263Z,20.97
2022-12-05T18:46:37.876Z,21.37
2022-12-05T18:49:05.411Z,20.57
2022-12-05T18:51:32.579Z,20.50
2022-12-05T18:53:59.985Z,21.53
2022-12-05T18:56:30.633Z,20.00
2022-12-05T18:59:06.418Z,21.60
2022-12-05T19:01:35.988Z,19.97
2022-12-05T19:04:04.282Z,21.63
2022-12-05T19:06:33.898Z,20.90
2022-12-05T19:09:06.569Z,21.23
2022-12-05T19:11:34.150Z,20.50
2022-12-05T19:14:04.301Z,20.87
2022-12-05T19:16:33.812Z,22.20
2022-12-05T19:19:02.560Z,22.07
2022-12-05T19:21:32.527Z,20.90
2022-12-05T19:24:02.187Z,23.43
2022-12-05T19:26:29.597Z,22.50
2022-12-05T19:28:57.875Z,21.33
2022-12-05T19:31:27.563Z,21.57
2022-12-05T19:34:03.048Z,22.47
2022-12-05T19:36:35.992Z,23.60
2022-12-05T19:39:13.648Z,23.07
2022-12-05T19:41:40.782Z,25.30
2022-12-05T19:44:08.115Z,22.53
2022-12-05T19:46:35.745Z,27.07
2022-12-05T19:49:08.078Z,24.20
2022-12-05T19:51:35.960Z,26.00
2022-12-05T19:54:06.070Z,26.03
2022-12-05T19:56:36.394Z,24.17
2022-12-05T19:59:04.120Z,23.57
2022-12-05T20:01:36.818Z,25.60
2022-12-05T20:04:11.135Z,24.63
2022-12-05T20:06:46.400Z,25.63
2022-12-05T20:09:16.580Z,26.40
2022-12-05T20:11:50.806Z,26.07
2022-12-05T20:14:21.165Z,26.07
2022-12-05T20:16:48.893Z,26.53
2022-12-05T20:19:16.048Z,26.50
2022-12-05T20:21:45.481Z,27.40
2022-12-05T20:24:12.525Z,27.30
2022-12-05T20:26:42.212Z,29.00
2022-12-05T20:29:09.674Z,26.57
2022-12-05T20:31:42.672Z,28.07
2022-12-05T20:34:18.391Z,28.23
2022-12-05T20:36:45.724Z,29.60
2022-12-05T20:39:18.261Z,30.00
2022-12-05T20:41:46.117Z,30.67
2022-12-05T20:44:15.621Z,31.50
2022-12-05T20:46:43.836Z,31.70
2022-12-05T20:49:13.334Z,30.90
2022-12-05T20:51:43.112Z,34.17
2022-12-05T20:54:12.789Z,32.80
2022-12-05T20:56:40.565Z,31.83
2022-12-05T20:59:08.408Z,30.57
2022-12-05T21:01:37.503Z,31.90
2022-12-05T21:04:07.096Z,31.97
2022-12-05T21:06:36.732Z,31.33
2022-12-05T21:09:06.589Z,33.00
2022-12-05T21:11:33.640Z,32.13
2022-12-05T21:14:00.958Z,31.40
2022-12-05T21:16:32.964Z,29.17
2022-12-05T21:19:00.593Z,29.60
2022-12-05T21:21:29.315Z,32.30
2022-12-05T21:23:59.403Z,29.43
2022-12-05T21:26:28.017Z,31.13
2022-12-05T21:28:56.050Z,29.10
2022-12-05T21:31:39.908Z,28.30
2022-12-05T21:34:20.809Z,30.93
2022-12-05T21:36:48.377Z,30.40
2022-12-05T21:39:15.833Z,28.93
2022-12-05T21:41:42.860Z,28.33
2022-12-05T21:44:11.027Z,27.60
2022-12-05T21:46:38.181Z,26.73
2022-12-05T21:49:05.273Z,24.70
2022-12-05T21:51:32.295Z,27.47
2022-12-05T21:53:59.195Z,27.10
2022-12-05T21:56:26.069Z,26.53
2022-12-05T21:58:53.385Z,30.50
2022-12-05T22:01:25.913Z,27.57
2022-12-05T22:03:54.914Z,25.67
2022-12-05T22:06:22.173Z,26.90
2022-12-05T22:08:49.227Z,28.37
2022-12-05T22:11:19.570Z,26.60
2022-12-05T22:13:47.594Z,26.63
2022-12-05T22:16:15.076Z,26.53
2022-12-05T22:18:42.484Z,26.50
2022-12-05T22:21:17.000Z,24.57
2022-12-05T22:23:44.775Z,25.93
2022-12-05T22:26:20.177Z,24.97
2022-12-05T22:28:49.421Z,25.43
2022-12-05T22:31:17.684Z,26.37
2022-12-05T22:33:45.586Z,25.23
2022-12-05T22:36:16.855Z,24.00
2022-12-05T22:38:47.225Z,23.40
2022-12-05T22:41:34.012Z,26.17
2022-12-05T22:44:01.034Z,24.87
2022-12-05T22:46:29.307Z,25.33
2022-12-05T22:48:57.352Z,25.97
2022-12-05T22:51:24.965Z,25.40
2022-12-05T22:53:53.232Z,24.10
2022-12-05T22:56:22.028Z,24.63
2022-12-05T22:58:49.528Z,25.83
2022-12-05T23:01:22.626Z,25.20
2022-12-05T23:03:54.445Z,23.73
2022-12-05T23:06:21.580Z,24.17
2022-12-05T23:08:49.387Z,23.90
2022-12-05T23:11:19.576Z,24.50
2022-12-05T23:13:47.757Z,24.43
2022-12-05T23:16:22.958Z,22.67
2022-12-05T23:18:51.694Z,23.67
2022-12-05T23:21:39.000Z,23.90
2022-12-05T23:24:08.680Z,23.00
2022-12-05T23:26:49.179Z,23.50
2022-12-05T23:29:16.309Z,23.90
2022-12-05T23:31:43.925Z,22.43
2022-12-05T23:34:12.161Z,24.57
2022-12-05T23:36:39.325Z,23.90
2022-12-05T23:39:06.887Z,23.90
2022-12-05T23:41:33.995Z,24.70
2022-12-05T23:44:01.160Z,24.00
2022-12-05T23:46:28.597Z,23.27
2022-12-05T23:48:56.388Z,23.60
2022-12-05T23:51:25.741Z,22.53
2022-12-05T23:53:55.797Z,22.77
2022-12-05T23:56:28.165Z,21.43
2022-12-05T23:58:56.770Z,23.83
